Boys Ranch, Texas
Current Conditions -  °F | °C
As of 2:53 AM on Friday 31 Oct 2014 (Local Time) from KAMA Reporting Station
Clear Clear  
Wind Chill: 45°   Ceiling: Unl
Heat Index: 45°   Visibility: 10mi
Dew Point: 30°   Wind: 3mph
Humidity: 56%   Direction: 20°NNE
Pressure: 30.4"   Gusts: NA
Location:  35.53°N, 102.26°W
Report Text: KAMA 310753Z AUTO 02003KT 10SM CLR 07/M01 A3040 RMK AO2 SLP268 T00721011
Loading
Personal Weather Stations






























Interactive Weather Map
Tropical Storm Tracking
New forecast layout! Learn more

10-Day Weather Forecast

Advertisements
Track Severe Weather on mobile